Pace, Louisiana
Current Conditions -  °F | °C
As of 9:56 AM on Sunday 23 Nov 2014 (Local Time) from KMNE Reporting Station
Light Rain Light Rain  
Wind Chill: 63°   Ceiling: 300
Heat Index: 63°   Visibility: 10mi
Dew Point: 61°   Wind: 5mph
Humidity: 94%   Direction: 260°W
Pressure: 29.55"   Gusts: NA
Location:  32.7093°N, 93.3068°W
Report Text: KMNE 231556Z AUTO 26004KT 10SM -RA OVC003 17/16 A2955 RMK AO2 LTG DSNT E P0008
Loading
Personal Weather Stations






























Interactive Weather Map New forecast layout! Learn more

10-Day Weather Forecast

Advertisements
Track Severe Weather on mobile